sensor_id;sensor_type;location;lat;lon;timestamp;P1;durP1;ratioP1;P2;durP2;ratioP2
67100;SDS011;54019;61.746;16.106;2023-04-07T00:00:30;0.50;;;0.50;;
67100;SDS011;54019;61.746;16.106;2023-04-07T00:02:56;0.95;;;0.52;;
67100;SDS011;54019;61.746;16.106;2023-04-07T00:05:23;0.70;;;0.50;;
67100;SDS011;54019;61.746;16.106;2023-04-07T00:07:49;0.40;;;0.40;;
67100;SDS011;54019;61.746;16.106;2023-04-07T00:10:14;0.88;;;0.60;;
67100;SDS011;54019;61.746;16.106;2023-04-07T00:12:40;0.40;;;0.40;;
67100;SDS011;54019;61.746;16.106;2023-04-07T00:15:06;0.40;;;0.35;;
67100;SDS011;54019;61.746;16.106;2023-04-07T00:17:33;0.50;;;0.50;;
67100;SDS011;54019;61.746;16.106;2023-04-07T00:19:58;0.60;;;0.60;;
67100;SDS011;54019;61.746;16.106;2023-04-07T00:22:26;0.43;;;0.43;;
67100;SDS011;54019;61.746;16.106;2023-04-07T00:24:51;0.40;;;0.40;;
67100;SDS011;54019;61.746;16.106;2023-04-07T00:27:17;0.40;;;0.40;;
67100;SDS011;54019;61.746;16.106;2023-04-07T00:29:43;1.20;;;0.50;;
67100;SDS011;54019;61.746;16.106;2023-04-07T00:32:09;0.47;;;0.40;;
67100;SDS011;54019;61.746;16.106;2023-04-07T00:34:34;0.32;;;0.32;;
67100;SDS011;54019;61.746;16.106;2023-04-07T00:37:00;0.43;;;0.40;;
67100;SDS011;54019;61.746;16.106;2023-04-07T00:39:27;0.40;;;0.40;;
67100;SDS011;54019;61.746;16.106;2023-04-07T00:41:53;0.55;;;0.52;;
67100;SDS011;54019;61.746;16.106;2023-04-07T00:44:19;0.98;;;0.40;;
67100;SDS011;54019;61.746;16.106;2023-04-07T00:46:45;0.40;;;0.40;;
67100;SDS011;54019;61.746;16.106;2023-04-07T00:49:12;0.63;;;0.50;;
67100;SDS011;54019;61.746;16.106;2023-04-07T00:51:37;0.50;;;0.50;;
67100;SDS011;54019;61.746;16.106;2023-04-07T00:54:03;0.40;;;0.40;;
67100;SDS011;54019;61.746;16.106;2023-04-07T00:56:31;0.45;;;0.43;;
67100;SDS011;54019;61.746;16.106;2023-04-07T00:58:57;0.63;;;0.50;;
67100;SDS011;54019;61.746;16.106;2023-04-07T01:01:23;0.30;;;0.30;;
67100;SDS011;54019;61.746;16.106;2023-04-07T01:03:55;0.32;;;0.32;;
67100;SDS011;54019;61.746;16.106;2023-04-07T01:06:26;0.47;;;0.47;;
67100;SDS011;54019;61.746;16.106;2023-04-07T01:08:56;0.43;;;0.40;;
67100;SDS011;54019;61.746;16.106;2023-04-07T01:11:29;0.32;;;0.32;;
67100;SDS011;54019;61.746;16.106;2023-04-07T01:14:01;0.40;;;0.40;;
67100;SDS011;54019;61.746;16.106;2023-04-07T01:16:29;0.30;;;0.30;;
67100;SDS011;54019;61.746;16.106;2023-04-07T01:18:59;0.50;;;0.50;;
67100;SDS011;54019;61.746;16.106;2023-04-07T01:21:32;1.17;;;0.47;;
67100;SDS011;54019;61.746;16.106;2023-04-07T01:24:12;0.80;;;0.40;;
67100;SDS011;54019;61.746;16.106;2023-04-07T01:27:09;0.52;;;0.50;;
67100;SDS011;54019;61.746;16.106;2023-04-07T01:29:44;0.40;;;0.40;;
67100;SDS011;54019;61.746;16.106;2023-04-07T01:32:11;0.40;;;0.40;;
67100;SDS011;54019;61.746;16.106;2023-04-07T01:34:38;0.50;;;0.50;;
67100;SDS011;54019;61.746;16.106;2023-04-07T01:37:05;0.50;;;0.50;;
67100;SDS011;54019;61.746;16.106;2023-04-07T01:39:32;0.50;;;0.40;;
67100;SDS011;54019;61.746;16.106;2023-04-07T01:41:59;0.43;;;0.40;;
67100;SDS011;54019;61.746;16.106;2023-04-07T01:44:27;0.50;;;0.40;;
67100;SDS011;54019;61.746;16.106;2023-04-07T01:46:57;0.52;;;0.50;;
67100;SDS011;54019;61.746;16.106;2023-04-07T01:49:24;0.45;;;0.40;;
67100;SDS011;54019;61.746;16.106;2023-04-07T01:51:50;0.60;;;0.60;;
67100;SDS011;54019;61.746;16.106;2023-04-07T01:54:17;0.50;;;0.50;;
67100;SDS011;54019;61.746;16.106;2023-04-07T01:56:43;0.50;;;0.50;;
67100;SDS011;54019;61.746;16.106;2023-04-07T01:59:09;0.50;;;0.50;;
67100;SDS011;54019;61.746;16.106;2023-04-07T02:01:35;0.40;;;0.40;;
67100;SDS011;54019;61.746;16.106;2023-04-07T02:04:04;0.40;;;0.40;;
67100;SDS011;54019;61.746;16.106;2023-04-07T02:06:34;0.40;;;0.40;;
67100;SDS011;54019;61.746;16.106;2023-04-07T02:09:06;0.50;;;0.50;;
67100;SDS011;54019;61.746;16.106;2023-04-07T02:11:34;0.70;;;0.50;;
67100;SDS011;54019;61.746;16.106;2023-04-07T02:14:02;0.40;;;0.40;;
67100;SDS011;54019;61.746;16.106;2023-04-07T02:16:30;0.30;;;0.30;;
67100;SDS011;54019;61.746;16.106;2023-04-07T02:18:56;0.38;;;0.38;;
67100;SDS011;54019;61.746;16.106;2023-04-07T02:21:24;0.57;;;0.50;;
67100;SDS011;54019;61.746;16.106;2023-04-07T02:23:51;0.50;;;0.50;;
67100;SDS011;54019;61.746;16.106;2023-04-07T02:26:17;0.68;;;0.40;;
67100;SDS011;54019;61.746;16.106;2023-04-07T02:28:43;0.30;;;0.30;;
67100;SDS011;54019;61.746;16.106;2023-04-07T02:31:09;0.40;;;0.40;;
67100;SDS011;54019;61.746;16.106;2023-04-07T02:33:34;0.30;;;0.30;;
67100;SDS011;54019;61.746;16.106;2023-04-07T02:36:00;0.45;;;0.45;;
67100;SDS011;54019;61.746;16.106;2023-04-07T02:38:27;0.40;;;0.40;;
67100;SDS011;54019;61.746;16.106;2023-04-07T02:40:53;0.40;;;0.40;;
67100;SDS011;54019;61.746;16.106;2023-04-07T02:43:19;0.40;;;0.40;;
67100;SDS011;54019;61.746;16.106;2023-04-07T02:45:45;0.45;;;0.45;;
67100;SDS011;54019;61.746;16.106;2023-04-07T02:48:11;0.38;;;0.38;;
67100;SDS011;54019;61.746;16.106;2023-04-07T02:50:37;0.57;;;0.30;;
67100;SDS011;54019;61.746;16.106;2023-04-07T02:53:02;0.40;;;0.40;;
67100;SDS011;54019;61.746;16.106;2023-04-07T02:55:30;0.50;;;0.50;;
67100;SDS011;54019;61.746;16.106;2023-04-07T02:57:55;0.30;;;0.30;;
67100;SDS011;54019;61.746;16.106;2023-04-07T03:00:21;0.38;;;0.38;;
67100;SDS011;54019;61.746;16.106;2023-04-07T03:02:47;0.40;;;0.40;;
67100;SDS011;54019;61.746;16.106;2023-04-07T03:05:13;0.30;;;0.30;;
67100;SDS011;54019;61.746;16.106;2023-04-07T03:07:38;0.40;;;0.40;;
67100;SDS011;54019;61.746;16.106;2023-04-07T03:10:04;0.30;;;0.30;;
67100;SDS011;54019;61.746;16.106;2023-04-07T03:12:32;0.30;;;0.30;;
67100;SDS011;54019;61.746;16.106;2023-04-07T03:14:58;0.50;;;0.50;;
67100;SDS011;54019;61.746;16.106;2023-04-07T03:17:24;0.40;;;0.40;;
67100;SDS011;54019;61.746;16.106;2023-04-07T03:19:50;0.47;;;0.45;;
67100;SDS011;54019;61.746;16.106;2023-04-07T03:22:15;0.30;;;0.30;;
67100;SDS011;54019;61.746;16.106;2023-04-07T03:24:41;0.50;;;0.50;;
67100;SDS011;54019;61.746;16.106;2023-04-07T03:27:07;0.40;;;0.40;;
67100;SDS011;54019;61.746;16.106;2023-04-07T03:29:34;0.47;;;0.40;;
67100;SDS011;54019;61.746;16.106;2023-04-07T03:32:00;0.85;;;0.47;;
67100;SDS011;54019;61.746;16.106;2023-04-07T03:34:25;0.35;;;0.35;;
67100;SDS011;54019;61.746;16.106;2023-04-07T03:36:51;0.40;;;0.40;;
67100;SDS011;54019;61.746;16.106;2023-04-07T03:39:17;0.40;;;0.40;;
67100;SDS011;54019;61.746;16.106;2023-04-07T03:41:43;0.38;;;0.38;;
67100;SDS011;54019;61.746;16.106;2023-04-07T03:44:08;0.60;;;0.50;;
67100;SDS011;54019;61.746;16.106;2023-04-07T03:46:36;0.70;;;0.40;;
67100;SDS011;54019;61.746;16.106;2023-04-07T03:49:01;0.50;;;0.50;;
67100;SDS011;54019;61.746;16.106;2023-04-07T03:51:27;0.40;;;0.40;;
67100;SDS011;54019;61.746;16.106;2023-04-07T03:53:53;0.50;;;0.50;;
67100;SDS011;54019;61.746;16.106;2023-04-07T03:56:19;0.40;;;0.40;;
67100;SDS011;54019;61.746;16.106;2023-04-07T03:58:44;0.35;;;0.35;;
67100;SDS011;54019;61.746;16.106;2023-04-07T04:01:10;0.95;;;0.57;;
67100;SDS011;54019;61.746;16.106;2023-04-07T04:03:37;1.95;;;0.60;;
67100;SDS011;54019;61.746;16.106;2023-04-07T04:06:03;5.22;;;0.50;;
67100;SDS011;54019;61.746;16.106;2023-04-07T04:08:29;2.60;;;0.65;;
67100;SDS011;54019;61.746;16.106;2023-04-07T04:10:55;4.70;;;0.60;;
67100;SDS011;54019;61.746;16.106;2023-04-07T04:13:21;1.48;;;0.60;;
67100;SDS011;54019;61.746;16.106;2023-04-07T04:15:46;2.60;;;0.60;;
67100;SDS011;54019;61.746;16.106;2023-04-07T04:18:12;2.42;;;0.70;;
67100;SDS011;54019;61.746;16.106;2023-04-07T04:20:39;2.38;;;0.63;;
67100;SDS011;54019;61.746;16.106;2023-04-07T04:23:05;4.07;;;0.65;;
67100;SDS011;54019;61.746;16.106;2023-04-07T04:25:31;3.95;;;0.70;;
67100;SDS011;54019;61.746;16.106;2023-04-07T04:27:57;3.17;;;0.80;;
67100;SDS011;54019;61.746;16.106;2023-04-07T04:30:23;3.60;;;0.50;;
67100;SDS011;54019;61.746;16.106;2023-04-07T04:32:48;5.22;;;0.77;;
67100;SDS011;54019;61.746;16.106;2023-04-07T04:35:14;7.15;;;0.70;;
67100;SDS011;54019;61.746;16.106;2023-04-07T04:37:41;1.65;;;0.50;;
67100;SDS011;54019;61.746;16.106;2023-04-07T04:40:07;8.55;;;0.70;;
67100;SDS011;54019;61.746;16.106;2023-04-07T04:42:34;3.90;;;0.50;;
67100;SDS011;54019;61.746;16.106;2023-04-07T04:45:00;3.83;;;0.60;;
67100;SDS011;54019;61.746;16.106;2023-04-07T04:47:26;1.60;;;0.50;;
67100;SDS011;54019;61.746;16.106;2023-04-07T04:49:51;2.53;;;0.50;;
67100;SDS011;54019;61.746;16.106;2023-04-07T04:52:17;3.50;;;0.50;;
67100;SDS011;54019;61.746;16.106;2023-04-07T04:54:44;0.90;;;0.50;;
67100;SDS011;54019;61.746;16.106;2023-04-07T04:57:10;0.80;;;0.40;;
67100;SDS011;54019;61.746;16.106;2023-04-07T04:59:36;1.85;;;0.50;;
67100;SDS011;54019;61.746;16.106;2023-04-07T05:02:01;0.95;;;0.60;;
67100;SDS011;54019;61.746;16.106;2023-04-07T05:04:27;4.57;;;0.63;;
67100;SDS011;54019;61.746;16.106;2023-04-07T05:06:53;3.40;;;0.47;;
67100;SDS011;54019;61.746;16.106;2023-04-07T05:09:19;2.78;;;0.55;;
67100;SDS011;54019;61.746;16.106;2023-04-07T05:11:46;2.03;;;0.50;;
67100;SDS011;54019;61.746;16.106;2023-04-07T05:14:12;4.43;;;0.50;;
67100;SDS011;54019;61.746;16.106;2023-04-07T05:16:37;4.72;;;0.47;;
67100;SDS011;54019;61.746;16.106;2023-04-07T05:19:03;4.80;;;0.60;;
67100;SDS011;54019;61.746;16.106;2023-04-07T05:21:29;3.72;;;0.50;;
67100;SDS011;54019;61.746;16.106;2023-04-07T05:23:55;3.22;;;0.57;;
67100;SDS011;54019;61.746;16.106;2023-04-07T05:26:21;4.95;;;0.50;;
67100;SDS011;54019;61.746;16.106;2023-04-07T05:28:48;2.40;;;0.40;;
67100;SDS011;54019;61.746;16.106;2023-04-07T05:31:14;2.53;;;0.55;;
67100;SDS011;54019;61.746;16.106;2023-04-07T05:33:39;2.25;;;0.50;;
67100;SDS011;54019;61.746;16.106;2023-04-07T05:36:05;4.57;;;0.75;;
67100;SDS011;54019;61.746;16.106;2023-04-07T05:38:31;2.15;;;0.40;;
67100;SDS011;54019;61.746;16.106;2023-04-07T05:40:57;4.05;;;0.40;;
67100;SDS011;54019;61.746;16.106;2023-04-07T05:43:23;1.95;;;0.50;;
67100;SDS011;54019;61.746;16.106;2023-04-07T05:45:50;5.38;;;0.50;;
67100;SDS011;54019;61.746;16.106;2023-04-07T05:48:16;6.03;;;0.60;;
67100;SDS011;54019;61.746;16.106;2023-04-07T05:50:42;9.98;;;0.57;;
67100;SDS011;54019;61.746;16.106;2023-04-07T05:53:11;5.32;;;0.60;;
67100;SDS011;54019;61.746;16.106;2023-04-07T05:55:36;8.70;;;0.57;;
67100;SDS011;54019;61.746;16.106;2023-04-07T05:58:02;9.93;;;0.88;;
67100;SDS011;54019;61.746;16.106;2023-04-07T06:00:28;3.95;;;0.70;;
67100;SDS011;54019;61.746;16.106;2023-04-07T06:02:55;3.65;;;0.45;;
67100;SDS011;54019;61.746;16.106;2023-04-07T06:05:21;3.05;;;0.60;;
67100;SDS011;54019;61.746;16.106;2023-04-07T06:07:47;8.40;;;0.68;;
67100;SDS011;54019;61.746;16.106;2023-04-07T06:10:13;3.55;;;0.77;;
67100;SDS011;54019;61.746;16.106;2023-04-07T06:12:39;3.38;;;0.80;;
67100;SDS011;54019;61.746;16.106;2023-04-07T06:15:05;2.10;;;0.60;;
67100;SDS011;54019;61.746;16.106;2023-04-07T06:17:31;2.25;;;0.65;;
67100;SDS011;54019;61.746;16.106;2023-04-07T06:19:58;2.13;;;0.45;;
67100;SDS011;54019;61.746;16.106;2023-04-07T06:22:24;3.47;;;0.60;;
67100;SDS011;54019;61.746;16.106;2023-04-07T06:24:50;2.88;;;0.47;;
67100;SDS011;54019;61.746;16.106;2023-04-07T06:27:16;4.47;;;0.60;;
67100;SDS011;54019;61.746;16.106;2023-04-07T06:29:42;0.85;;;0.70;;
67100;SDS011;54019;61.746;16.106;2023-04-07T06:32:08;1.73;;;0.63;;
67100;SDS011;54019;61.746;16.106;2023-04-07T06:34:33;2.83;;;0.60;;
67100;SDS011;54019;61.746;16.106;2023-04-07T06:37:03;1.70;;;0.47;;
67100;SDS011;54019;61.746;16.106;2023-04-07T06:39:29;3.13;;;0.50;;
67100;SDS011;54019;61.746;16.106;2023-04-07T06:41:55;1.08;;;0.60;;
67100;SDS011;54019;61.746;16.106;2023-04-07T06:44:21;0.93;;;0.60;;
67100;SDS011;54019;61.746;16.106;2023-04-07T06:46:47;2.47;;;0.50;;
67100;SDS011;54019;61.746;16.106;2023-04-07T06:49:13;1.52;;;0.50;;
67100;SDS011;54019;61.746;16.106;2023-04-07T06:51:38;2.75;;;0.52;;
67100;SDS011;54019;61.746;16.106;2023-04-07T06:54:05;1.38;;;0.57;;
67100;SDS011;54019;61.746;16.106;2023-04-07T06:56:31;0.52;;;0.40;;
67100;SDS011;54019;61.746;16.106;2023-04-07T06:58:57;1.05;;;0.40;;
67100;SDS011;54019;61.746;16.106;2023-04-07T07:01:23;0.50;;;0.47;;
67100;SDS011;54019;61.746;16.106;2023-04-07T07:03:49;0.55;;;0.40;;
67100;SDS011;54019;61.746;16.106;2023-04-07T07:06:15;0.70;;;0.47;;
67100;SDS011;54019;61.746;16.106;2023-04-07T07:08:41;0.30;;;0.30;;
67100;SDS011;54019;61.746;16.106;2023-04-07T07:11:08;1.85;;;0.30;;
67100;SDS011;54019;61.746;16.106;2023-04-07T07:13:33;0.50;;;0.40;;
67100;SDS011;54019;61.746;16.106;2023-04-07T07:15:59;1.65;;;0.55;;
67100;SDS011;54019;61.746;16.106;2023-04-07T07:18:25;0.70;;;0.40;;
67100;SDS011;54019;61.746;16.106;2023-04-07T07:20:51;1.63;;;0.55;;
67100;SDS011;54019;61.746;16.106;2023-04-07T07:23:17;0.40;;;0.40;;
67100;SDS011;54019;61.746;16.106;2023-04-07T07:25:42;0.50;;;0.50;;
67100;SDS011;54019;61.746;16.106;2023-04-07T07:28:10;0.80;;;0.38;;
67100;SDS011;54019;61.746;16.106;2023-04-07T07:30:38;0.40;;;0.40;;
67100;SDS011;54019;61.746;16.106;2023-04-07T07:33:04;1.80;;;0.40;;
67100;SDS011;54019;61.746;16.106;2023-04-07T07:35:29;0.88;;;0.50;;
67100;SDS011;54019;61.746;16.106;2023-04-07T07:37:55;1.55;;;0.38;;
67100;SDS011;54019;61.746;16.106;2023-04-07T07:40:21;0.60;;;0.47;;
67100;SDS011;54019;61.746;16.106;2023-04-07T07:42:47;1.00;;;0.55;;
67100;SDS011;54019;61.746;16.106;2023-04-07T07:45:14;0.82;;;0.30;;
67100;SDS011;54019;61.746;16.106;2023-04-07T07:47:40;0.85;;;0.40;;
67100;SDS011;54019;61.746;16.106;2023-04-07T07:50:06;1.75;;;0.47;;
67100;SDS011;54019;61.746;16.106;2023-04-07T07:52:32;0.50;;;0.32;;
67100;SDS011;54019;61.746;16.106;2023-04-07T07:54:58;0.40;;;0.30;;
67100;SDS011;54019;61.746;16.106;2023-04-07T07:57:26;0.40;;;0.30;;
67100;SDS011;54019;61.746;16.106;2023-04-07T07:59:52;0.40;;;0.40;;
67100;SDS011;54019;61.746;16.106;2023-04-07T08:02:20;0.28;;;0.28;;
67100;SDS011;54019;61.746;16.106;2023-04-07T08:04:45;1.40;;;0.38;;
67100;SDS011;54019;61.746;16.106;2023-04-07T08:07:11;2.75;;;0.55;;
67100;SDS011;54019;61.746;16.106;2023-04-07T08:09:37;2.03;;;0.40;;
67100;SDS011;54019;61.746;16.106;2023-04-07T08:12:03;0.52;;;0.40;;
67100;SDS011;54019;61.746;16.106;2023-04-07T08:14:28;0.70;;;0.30;;
67100;SDS011;54019;61.746;16.106;2023-04-07T08:16:54;0.90;;;0.40;;
67100;SDS011;54019;61.746;16.106;2023-04-07T08:19:21;0.73;;;0.40;;
67100;SDS011;54019;61.746;16.106;2023-04-07T08:21:47;3.40;;;0.40;;
67100;SDS011;54019;61.746;16.106;2023-04-07T08:24:13;1.23;;;0.50;;
67100;SDS011;54019;61.746;16.106;2023-04-07T08:26:39;1.25;;;0.40;;
67100;SDS011;54019;61.746;16.106;2023-04-07T08:29:04;1.38;;;0.40;;
67100;SDS011;54019;61.746;16.106;2023-04-07T08:31:30;0.40;;;0.32;;
67100;SDS011;54019;61.746;16.106;2023-04-07T08:33:56;0.30;;;0.30;;
67100;SDS011;54019;61.746;16.106;2023-04-07T08:36:23;2.08;;;0.47;;
67100;SDS011;54019;61.746;16.106;2023-04-07T08:38:49;0.40;;;0.40;;
67100;SDS011;54019;61.746;16.106;2023-04-07T08:41:16;0.30;;;0.30;;
67100;SDS011;54019;61.746;16.106;2023-04-07T08:43:48;0.60;;;0.40;;
67100;SDS011;54019;61.746;16.106;2023-04-07T08:46:17;0.30;;;0.30;;
67100;SDS011;54019;61.746;16.106;2023-04-07T08:48:45;0.30;;;0.30;;
67100;SDS011;54019;61.746;16.106;2023-04-07T08:51:15;0.20;;;0.20;;
67100;SDS011;54019;61.746;16.106;2023-04-07T08:53:52;0.40;;;0.40;;
67100;SDS011;54019;61.746;16.106;2023-04-07T08:56:20;0.30;;;0.30;;
67100;SDS011;54019;61.746;16.106;2023-04-07T08:58:46;0.20;;;0.20;;
67100;SDS011;54019;61.746;16.106;2023-04-07T09:01:13;1.45;;;0.30;;
67100;SDS011;54019;61.746;16.106;2023-04-07T09:03:39;0.60;;;0.30;;
67100;SDS011;54019;61.746;16.106;2023-04-07T09:06:06;0.50;;;0.30;;
67100;SDS011;54019;61.746;16.106;2023-04-07T09:08:33;0.20;;;0.20;;
67100;SDS011;54019;61.746;16.106;2023-04-07T09:11:01;0.30;;;0.30;;
67100;SDS011;54019;61.746;16.106;2023-04-07T09:13:27;0.30;;;0.30;;
67100;SDS011;54019;61.746;16.106;2023-04-07T09:15:53;0.40;;;0.30;;
67100;SDS011;54019;61.746;16.106;2023-04-07T09:18:18;0.30;;;0.30;;
67100;SDS011;54019;61.746;16.106;2023-04-07T09:20:54;0.30;;;0.30;;
67100;SDS011;54019;61.746;16.106;2023-04-07T09:23:26;1.05;;;0.30;;
67100;SDS011;54019;61.746;16.106;2023-04-07T09:25:52;0.20;;;0.20;;
67100;SDS011;54019;61.746;16.106;2023-04-07T09:28:19;0.20;;;0.20;;
67100;SDS011;54019;61.746;16.106;2023-04-07T09:30:51;0.20;;;0.20;;
67100;SDS011;54019;61.746;16.106;2023-04-07T09:33:19;0.40;;;0.40;;
67100;SDS011;54019;61.746;16.106;2023-04-07T09:35:51;0.20;;;0.20;;
67100;SDS011;54019;61.746;16.106;2023-04-07T09:38:17;0.32;;;0.30;;
67100;SDS011;54019;61.746;16.106;2023-04-07T09:40:43;0.40;;;0.30;;
67100;SDS011;54019;61.746;16.106;2023-04-07T09:43:13;0.20;;;0.20;;
67100;SDS011;54019;61.746;16.106;2023-04-07T09:45:41;0.20;;;0.20;;
67100;SDS011;54019;61.746;16.106;2023-04-07T09:48:08;0.10;;;0.10;;
67100;SDS011;54019;61.746;16.106;2023-04-07T09:50:42;0.60;;;0.17;;
67100;SDS011;54019;61.746;16.106;2023-04-07T09:53:08;0.93;;;0.20;;
67100;SDS011;54019;61.746;16.106;2023-04-07T09:55:34;0.43;;;0.30;;
67100;SDS011;54019;61.746;16.106;2023-04-07T09:58:00;0.30;;;0.30;;
67100;SDS011;54019;61.746;16.106;2023-04-07T10:00:29;0.20;;;0.20;;
67100;SDS011;54019;61.746;16.106;2023-04-07T10:02:56;0.57;;;0.30;;
67100;SDS011;54019;61.746;16.106;2023-04-07T10:05:22;2.42;;;0.45;;
67100;SDS011;54019;61.746;16.106;2023-04-07T10:07:49;0.20;;;0.20;;
67100;SDS011;54019;61.746;16.106;2023-04-07T10:10:14;0.20;;;0.20;;
67100;SDS011;54019;61.746;16.106;2023-04-07T10:12:40;0.22;;;0.22;;
67100;SDS011;54019;61.746;16.106;2023-04-07T10:15:06;0.20;;;0.10;;
67100;SDS011;54019;61.746;16.106;2023-04-07T10:17:36;0.90;;;0.30;;
67100;SDS011;54019;61.746;16.106;2023-04-07T10:20:06;0.30;;;0.30;;
67100;SDS011;54019;61.746;16.106;2023-04-07T10:22:34;1.42;;;0.30;;
67100;SDS011;54019;61.746;16.106;2023-04-07T10:25:03;9.55;;;0.70;;
67100;SDS011;54019;61.746;16.106;2023-04-07T10:27:32;1.85;;;0.57;;
67100;SDS011;54019;61.746;16.106;2023-04-07T10:30:00;0.22;;;0.20;;
67100;SDS011;54019;61.746;16.106;2023-04-07T10:32:30;0.65;;;0.20;;
67100;SDS011;54019;61.746;16.106;2023-04-07T10:34:56;3.20;;;0.30;;
67100;SDS011;54019;61.746;16.106;2023-04-07T10:37:24;2.63;;;0.20;;
67100;SDS011;54019;61.746;16.106;2023-04-07T10:39:51;3.70;;;0.30;;
67100;SDS011;54019;61.746;16.106;2023-04-07T10:42:52;0.52;;;0.30;;
67100;SDS011;54019;61.746;16.106;2023-04-07T10:45:17;2.92;;;0.20;;
67100;SDS011;54019;61.746;16.106;2023-04-07T10:48:17;0.13;;;0.13;;
67100;SDS011;54019;61.746;16.106;2023-04-07T10:50:44;0.70;;;0.30;;
67100;SDS011;54019;61.746;16.106;2023-04-07T10:53:11;0.20;;;0.20;;
67100;SDS011;54019;61.746;16.106;2023-04-07T10:55:38;0.75;;;0.20;;
67100;SDS011;54019;61.746;16.106;2023-04-07T10:58:14;0.20;;;0.20;;
67100;SDS011;54019;61.746;16.106;2023-04-07T11:03:51;0.50;;;0.30;;
67100;SDS011;54019;61.746;16.106;2023-04-07T11:06:18;1.10;;;0.28;;
67100;SDS011;54019;61.746;16.106;2023-04-07T11:08:46;0.20;;;0.20;;
67100;SDS011;54019;61.746;16.106;2023-04-07T11:11:13;0.20;;;0.20;;
67100;SDS011;54019;61.746;16.106;2023-04-07T11:13:40;1.17;;;0.20;;
67100;SDS011;54019;61.746;16.106;2023-04-07T11:16:06;0.15;;;0.15;;
67100;SDS011;54019;61.746;16.106;2023-04-07T11:18:32;1.77;;;0.20;;
67100;SDS011;54019;61.746;16.106;2023-04-07T11:20:58;0.20;;;0.20;;
67100;SDS011;54019;61.746;16.106;2023-04-07T11:23:24;0.20;;;0.20;;
67100;SDS011;54019;61.746;16.106;2023-04-07T11:25:53;0.20;;;0.20;;
67100;SDS011;54019;61.746;16.106;2023-04-07T11:28:24;0.20;;;0.20;;
67100;SDS011;54019;61.746;16.106;2023-04-07T11:30:50;0.15;;;0.15;;
67100;SDS011;54019;61.746;16.106;2023-04-07T11:33:18;1.33;;;0.20;;
67100;SDS011;54019;61.746;16.106;2023-04-07T11:35:51;1.85;;;0.25;;
67100;SDS011;54019;61.746;16.106;2023-04-07T11:38:19;1.60;;;0.20;;
67100;SDS011;54019;61.746;16.106;2023-04-07T11:40:45;0.20;;;0.20;;
67100;SDS011;54019;61.746;16.106;2023-04-07T11:43:16;0.20;;;0.20;;
67100;SDS011;54019;61.746;16.106;2023-04-07T11:45:42;1.70;;;0.10;;
67100;SDS011;54019;61.746;16.106;2023-04-07T11:50:53;0.20;;;0.20;;
67100;SDS011;54019;61.746;16.106;2023-04-07T11:53:23;0.40;;;0.20;;
67100;SDS011;54019;61.746;16.106;2023-04-07T11:55:57;1.58;;;0.20;;
67100;SDS011;54019;61.746;16.106;2023-04-07T11:58:25;0.57;;;0.30;;
67100;SDS011;54019;61.746;16.106;2023-04-07T12:00:51;1.58;;;0.43;;
67100;SDS011;54019;61.746;16.106;2023-04-07T12:03:18;2.72;;;0.30;;
67100;SDS011;54019;61.746;16.106;2023-04-07T12:05:43;0.77;;;0.30;;
67100;SDS011;54019;61.746;16.106;2023-04-07T12:08:09;0.77;;;0.30;;
67100;SDS011;54019;61.746;16.106;2023-04-07T12:10:35;1.05;;;0.40;;
67100;SDS011;54019;61.746;16.106;2023-04-07T12:13:01;2.03;;;0.20;;
67100;SDS011;54019;61.746;16.106;2023-04-07T12:15:29;1.38;;;0.50;;
67100;SDS011;54019;61.746;16.106;2023-04-07T12:17:54;4.78;;;0.40;;
67100;SDS011;54019;61.746;16.106;2023-04-07T12:20:20;3.10;;;0.70;;
67100;SDS011;54019;61.746;16.106;2023-04-07T12:22:46;4.55;;;0.38;;
67100;SDS011;54019;61.746;16.106;2023-04-07T12:25:12;2.08;;;0.30;;
67100;SDS011;54019;61.746;16.106;2023-04-07T12:27:38;0.82;;;0.30;;
67100;SDS011;54019;61.746;16.106;2023-04-07T12:30:04;3.30;;;0.30;;
67100;SDS011;54019;61.746;16.106;2023-04-07T12:32:32;0.38;;;0.30;;
67100;SDS011;54019;61.746;16.106;2023-04-07T12:34:58;1.23;;;0.30;;
67100;SDS011;54019;61.746;16.106;2023-04-07T12:37:23;1.65;;;0.32;;
67100;SDS011;54019;61.746;16.106;2023-04-07T12:39:49;1.02;;;0.40;;
67100;SDS011;54019;61.746;16.106;2023-04-07T12:42:15;1.13;;;0.52;;
67100;SDS011;54019;61.746;16.106;2023-04-07T12:44:41;0.30;;;0.30;;
67100;SDS011;54019;61.746;16.106;2023-04-07T12:47:07;0.63;;;0.43;;
67100;SDS011;54019;61.746;16.106;2023-04-07T12:49:34;0.50;;;0.40;;
67100;SDS011;54019;61.746;16.106;2023-04-07T12:52:00;0.43;;;0.40;;
67100;SDS011;54019;61.746;16.106;2023-04-07T12:54:25;4.00;;;0.40;;
67100;SDS011;54019;61.746;16.106;2023-04-07T12:56:51;1.55;;;0.40;;
67100;SDS011;54019;61.746;16.106;2023-04-07T12:59:17;0.60;;;0.40;;
67100;SDS011;54019;61.746;16.106;2023-04-07T13:01:43;2.22;;;0.40;;
67100;SDS011;54019;61.746;16.106;2023-04-07T13:04:08;1.77;;;0.40;;
67100;SDS011;54019;61.746;16.106;2023-04-07T13:06:35;0.20;;;0.20;;
67100;SDS011;54019;61.746;16.106;2023-04-07T13:09:01;0.60;;;0.30;;
67100;SDS011;54019;61.746;16.106;2023-04-07T13:11:27;0.20;;;0.20;;
67100;SDS011;54019;61.746;16.106;2023-04-07T13:13:53;0.28;;;0.20;;
67100;SDS011;54019;61.746;16.106;2023-04-07T13:16:19;0.45;;;0.20;;
67100;SDS011;54019;61.746;16.106;2023-04-07T13:18:45;0.28;;;0.28;;
67100;SDS011;54019;61.746;16.106;2023-04-07T13:21:10;9.43;;;0.50;;
67100;SDS011;54019;61.746;16.106;2023-04-07T13:23:37;1.98;;;0.50;;
67100;SDS011;54019;61.746;16.106;2023-04-07T13:26:03;3.00;;;0.40;;
67100;SDS011;54019;61.746;16.106;2023-04-07T13:28:29;2.40;;;0.40;;
67100;SDS011;54019;61.746;16.106;2023-04-07T13:30:55;0.20;;;0.20;;
67100;SDS011;54019;61.746;16.106;2023-04-07T13:33:21;1.75;;;0.40;;
67100;SDS011;54019;61.746;16.106;2023-04-07T13:35:46;1.67;;;0.30;;
67100;SDS011;54019;61.746;16.106;2023-04-07T13:38:12;2.15;;;0.40;;
67100;SDS011;54019;61.746;16.106;2023-04-07T13:40:39;1.42;;;0.25;;
67100;SDS011;54019;61.746;16.106;2023-04-07T13:43:05;0.30;;;0.30;;
67100;SDS011;54019;61.746;16.106;2023-04-07T13:45:31;0.25;;;0.20;;
67100;SDS011;54019;61.746;16.106;2023-04-07T13:47:57;0.55;;;0.30;;
67100;SDS011;54019;61.746;16.106;2023-04-07T13:50:23;3.63;;;0.40;;
67100;SDS011;54019;61.746;16.106;2023-04-07T13:52:49;1.92;;;0.60;;
67100;SDS011;54019;61.746;16.106;2023-04-07T13:55:14;0.60;;;0.30;;
67100;SDS011;54019;61.746;16.106;2023-04-07T13:57:42;0.65;;;0.30;;
67100;SDS011;54019;61.746;16.106;2023-04-07T14:00:08;4.63;;;0.30;;
67100;SDS011;54019;61.746;16.106;2023-04-07T14:02:34;0.47;;;0.25;;
67100;SDS011;54019;61.746;16.106;2023-04-07T14:05:00;0.30;;;0.20;;
67100;SDS011;54019;61.746;16.106;2023-04-07T14:07:26;0.38;;;0.20;;
67100;SDS011;54019;61.746;16.106;2023-04-07T14:09:51;0.17;;;0.17;;
67100;SDS011;54019;61.746;16.106;2023-04-07T14:12:17;3.42;;;0.40;;
67100;SDS011;54019;61.746;16.106;2023-04-07T14:14:44;2.38;;;0.40;;
67100;SDS011;54019;61.746;16.106;2023-04-07T14:17:10;0.20;;;0.20;;
67100;SDS011;54019;61.746;16.106;2023-04-07T14:19:36;0.30;;;0.30;;
67100;SDS011;54019;61.746;16.106;2023-04-07T14:22:02;0.40;;;0.28;;
67100;SDS011;54019;61.746;16.106;2023-04-07T14:24:27;0.20;;;0.20;;
67100;SDS011;54019;61.746;16.106;2023-04-07T14:26:53;0.47;;;0.30;;
67100;SDS011;54019;61.746;16.106;2023-04-07T14:29:19;1.65;;;0.30;;
67100;SDS011;54019;61.746;16.106;2023-04-07T14:31:46;0.40;;;0.20;;
67100;SDS011;54019;61.746;16.106;2023-04-07T14:34:12;0.82;;;0.22;;
67100;SDS011;54019;61.746;16.106;2023-04-07T14:36:37;0.75;;;0.20;;